sensor_id;sensor_type;location;lat;lon;timestamp;P1;durP1;ratioP1;P2;durP2;ratioP2
19927;SDS011;10126;50.876;4.470;2023-06-10T00:00:40;0.00;;;0.00;;
19927;SDS011;10126;50.876;4.470;2023-06-10T00:02:41;0.10;;;0.10;;
19927;SDS011;10126;50.876;4.470;2023-06-10T00:04:43;0.10;;;0.10;;
19927;SDS011;10126;50.876;4.470;2023-06-10T00:06:44;0.10;;;0.10;;
19927;SDS011;10126;50.876;4.470;2023-06-10T00:08:48;0.10;;;0.10;;
19927;SDS011;10126;50.876;4.470;2023-06-10T00:10:49;0.00;;;0.00;;
19927;SDS011;10126;50.876;4.470;2023-06-10T00:12:50;0.10;;;0.10;;
19927;SDS011;10126;50.876;4.470;2023-06-10T00:14:51;0.10;;;0.10;;
19927;SDS011;10126;50.876;4.470;2023-06-10T00:16:53;0.00;;;0.00;;
19927;SDS011;10126;50.876;4.470;2023-06-10T00:18:55;0.10;;;0.10;;
19927;SDS011;10126;50.876;4.470;2023-06-10T00:21:00;0.00;;;0.00;;
19927;SDS011;10126;50.876;4.470;2023-06-10T00:23:04;0.10;;;0.10;;
19927;SDS011;10126;50.876;4.470;2023-06-10T00:25:06;0.10;;;0.10;;
19927;SDS011;10126;50.876;4.470;2023-06-10T00:27:07;0.10;;;0.10;;
19927;SDS011;10126;50.876;4.470;2023-06-10T00:29:08;0.00;;;0.00;;
19927;SDS011;10126;50.876;4.470;2023-06-10T00:31:09;0.10;;;0.10;;
19927;SDS011;10126;50.876;4.470;2023-06-10T00:33:10;0.10;;;0.10;;
19927;SDS011;10126;50.876;4.470;2023-06-10T00:35:10;0.07;;;0.07;;
19927;SDS011;10126;50.876;4.470;2023-06-10T00:37:11;0.10;;;0.10;;
19927;SDS011;10126;50.876;4.470;2023-06-10T00:39:12;0.00;;;0.00;;
19927;SDS011;10126;50.876;4.470;2023-06-10T00:41:12;0.10;;;0.10;;
19927;SDS011;10126;50.876;4.470;2023-06-10T00:43:13;0.10;;;0.10;;
19927;SDS011;10126;50.876;4.470;2023-06-10T00:45:14;0.10;;;0.10;;
19927;SDS011;10126;50.876;4.470;2023-06-10T00:47:15;0.10;;;0.10;;
19927;SDS011;10126;50.876;4.470;2023-06-10T00:49:18;0.10;;;0.10;;
19927;SDS011;10126;50.876;4.470;2023-06-10T00:51:19;0.10;;;0.10;;
19927;SDS011;10126;50.876;4.470;2023-06-10T00:53:21;0.10;;;0.10;;
19927;SDS011;10126;50.876;4.470;2023-06-10T00:55:22;0.10;;;0.10;;
19927;SDS011;10126;50.876;4.470;2023-06-10T00:57:24;0.10;;;0.10;;
19927;SDS011;10126;50.876;4.470;2023-06-10T00:59:26;0.10;;;0.10;;
19927;SDS011;10126;50.876;4.470;2023-06-10T01:01:31;0.10;;;0.10;;
19927;SDS011;10126;50.876;4.470;2023-06-10T01:03:32;0.10;;;0.10;;
19927;SDS011;10126;50.876;4.470;2023-06-10T01:05:38;0.10;;;0.10;;
19927;SDS011;10126;50.876;4.470;2023-06-10T01:10:05;0.10;;;0.10;;
19927;SDS011;10126;50.876;4.470;2023-06-10T01:14:20;0.10;;;0.10;;
19927;SDS011;10126;50.876;4.470;2023-06-10T01:16:22;0.10;;;0.10;;
19927;SDS011;10126;50.876;4.470;2023-06-10T01:18:23;0.10;;;0.10;;
19927;SDS011;10126;50.876;4.470;2023-06-10T01:20:31;0.10;;;0.10;;
19927;SDS011;10126;50.876;4.470;2023-06-10T01:22:32;0.10;;;0.10;;
19927;SDS011;10126;50.876;4.470;2023-06-10T01:24:36;0.10;;;0.10;;
19927;SDS011;10126;50.876;4.470;2023-06-10T01:26:40;0.10;;;0.10;;
19927;SDS011;10126;50.876;4.470;2023-06-10T01:28:54;0.10;;;0.10;;
19927;SDS011;10126;50.876;4.470;2023-06-10T01:33:26;0.10;;;0.10;;
19927;SDS011;10126;50.876;4.470;2023-06-10T01:35:29;0.10;;;0.10;;
19927;SDS011;10126;50.876;4.470;2023-06-10T01:37:31;0.20;;;0.20;;
19927;SDS011;10126;50.876;4.470;2023-06-10T01:39:32;0.10;;;0.10;;
19927;SDS011;10126;50.876;4.470;2023-06-10T01:41:33;0.10;;;0.10;;
19927;SDS011;10126;50.876;4.470;2023-06-10T01:43:37;0.10;;;0.10;;
19927;SDS011;10126;50.876;4.470;2023-06-10T01:45:38;0.00;;;0.00;;
19927;SDS011;10126;50.876;4.470;2023-06-10T01:47:39;0.00;;;0.00;;
19927;SDS011;10126;50.876;4.470;2023-06-10T01:49:40;0.10;;;0.10;;
19927;SDS011;10126;50.876;4.470;2023-06-10T01:51:40;0.13;;;0.10;;
19927;SDS011;10126;50.876;4.470;2023-06-10T01:53:41;0.10;;;0.10;;
19927;SDS011;10126;50.876;4.470;2023-06-10T01:55:42;0.10;;;0.10;;
19927;SDS011;10126;50.876;4.470;2023-06-10T01:57:42;0.10;;;0.10;;
19927;SDS011;10126;50.876;4.470;2023-06-10T01:59:43;0.10;;;0.10;;
19927;SDS011;10126;50.876;4.470;2023-06-10T02:01:44;0.10;;;0.10;;
19927;SDS011;10126;50.876;4.470;2023-06-10T02:03:45;0.10;;;0.10;;
19927;SDS011;10126;50.876;4.470;2023-06-10T02:05:46;0.10;;;0.10;;
19927;SDS011;10126;50.876;4.470;2023-06-10T02:07:46;0.10;;;0.10;;
19927;SDS011;10126;50.876;4.470;2023-06-10T02:09:47;0.10;;;0.10;;
19927;SDS011;10126;50.876;4.470;2023-06-10T02:11:48;0.10;;;0.10;;
19927;SDS011;10126;50.876;4.470;2023-06-10T02:13:49;0.10;;;0.10;;
19927;SDS011;10126;50.876;4.470;2023-06-10T02:15:49;0.10;;;0.10;;
19927;SDS011;10126;50.876;4.470;2023-06-10T02:17:50;0.10;;;0.10;;
19927;SDS011;10126;50.876;4.470;2023-06-10T02:19:50;0.10;;;0.10;;
19927;SDS011;10126;50.876;4.470;2023-06-10T02:21:54;0.10;;;0.10;;
19927;SDS011;10126;50.876;4.470;2023-06-10T02:23:55;0.10;;;0.10;;
19927;SDS011;10126;50.876;4.470;2023-06-10T02:25:55;0.10;;;0.10;;
19927;SDS011;10126;50.876;4.470;2023-06-10T02:27:56;0.10;;;0.10;;
19927;SDS011;10126;50.876;4.470;2023-06-10T02:29:57;0.20;;;0.20;;
19927;SDS011;10126;50.876;4.470;2023-06-10T02:31:58;0.10;;;0.10;;
19927;SDS011;10126;50.876;4.470;2023-06-10T02:33:58;0.10;;;0.10;;
19927;SDS011;10126;50.876;4.470;2023-06-10T02:35:59;0.10;;;0.10;;
19927;SDS011;10126;50.876;4.470;2023-06-10T02:38:00;0.10;;;0.10;;
19927;SDS011;10126;50.876;4.470;2023-06-10T02:40:01;0.10;;;0.10;;
19927;SDS011;10126;50.876;4.470;2023-06-10T02:42:01;0.10;;;0.10;;
19927;SDS011;10126;50.876;4.470;2023-06-10T02:44:02;0.10;;;0.10;;
19927;SDS011;10126;50.876;4.470;2023-06-10T02:46:03;0.10;;;0.10;;
19927;SDS011;10126;50.876;4.470;2023-06-10T02:48:04;0.10;;;0.10;;
19927;SDS011;10126;50.876;4.470;2023-06-10T02:50:05;0.10;;;0.10;;
19927;SDS011;10126;50.876;4.470;2023-06-10T02:52:06;0.10;;;0.10;;
19927;SDS011;10126;50.876;4.470;2023-06-10T02:54:08;0.10;;;0.10;;
19927;SDS011;10126;50.876;4.470;2023-06-10T02:56:08;0.10;;;0.10;;
19927;SDS011;10126;50.876;4.470;2023-06-10T02:58:09;0.10;;;0.10;;
19927;SDS011;10126;50.876;4.470;2023-06-10T03:00:10;0.10;;;0.10;;
19927;SDS011;10126;50.876;4.470;2023-06-10T03:02:11;0.10;;;0.10;;
19927;SDS011;10126;50.876;4.470;2023-06-10T03:04:12;0.10;;;0.10;;
19927;SDS011;10126;50.876;4.470;2023-06-10T03:06:13;0.10;;;0.10;;
19927;SDS011;10126;50.876;4.470;2023-06-10T03:08:14;0.10;;;0.10;;
19927;SDS011;10126;50.876;4.470;2023-06-10T03:10:15;0.10;;;0.10;;
19927;SDS011;10126;50.876;4.470;2023-06-10T03:12:15;0.10;;;0.10;;
19927;SDS011;10126;50.876;4.470;2023-06-10T03:14:16;0.10;;;0.10;;
19927;SDS011;10126;50.876;4.470;2023-06-10T03:16:17;0.10;;;0.10;;
19927;SDS011;10126;50.876;4.470;2023-06-10T03:18:18;0.10;;;0.10;;
19927;SDS011;10126;50.876;4.470;2023-06-10T03:20:19;0.10;;;0.10;;
19927;SDS011;10126;50.876;4.470;2023-06-10T03:22:21;0.10;;;0.10;;
19927;SDS011;10126;50.876;4.470;2023-06-10T03:24:22;0.10;;;0.10;;
19927;SDS011;10126;50.876;4.470;2023-06-10T03:26:23;0.10;;;0.10;;
19927;SDS011;10126;50.876;4.470;2023-06-10T03:28:23;0.10;;;0.10;;
19927;SDS011;10126;50.876;4.470;2023-06-10T03:30:24;0.10;;;0.10;;
19927;SDS011;10126;50.876;4.470;2023-06-10T03:32:25;0.10;;;0.10;;
19927;SDS011;10126;50.876;4.470;2023-06-10T03:34:25;0.10;;;0.10;;
19927;SDS011;10126;50.876;4.470;2023-06-10T03:36:26;0.10;;;0.10;;
19927;SDS011;10126;50.876;4.470;2023-06-10T03:38:29;0.10;;;0.10;;
19927;SDS011;10126;50.876;4.470;2023-06-10T03:40:29;0.10;;;0.10;;
19927;SDS011;10126;50.876;4.470;2023-06-10T03:42:31;0.10;;;0.10;;
19927;SDS011;10126;50.876;4.470;2023-06-10T03:44:32;0.10;;;0.10;;
19927;SDS011;10126;50.876;4.470;2023-06-10T03:46:33;0.10;;;0.10;;
19927;SDS011;10126;50.876;4.470;2023-06-10T03:48:34;0.10;;;0.10;;
19927;SDS011;10126;50.876;4.470;2023-06-10T03:50:35;0.10;;;0.10;;
19927;SDS011;10126;50.876;4.470;2023-06-10T03:52:37;0.20;;;0.20;;
19927;SDS011;10126;50.876;4.470;2023-06-10T03:54:45;0.10;;;0.10;;
19927;SDS011;10126;50.876;4.470;2023-06-10T03:56:46;0.10;;;0.10;;
19927;SDS011;10126;50.876;4.470;2023-06-10T03:58:48;0.10;;;0.10;;
19927;SDS011;10126;50.876;4.470;2023-06-10T04:00:49;0.10;;;0.10;;
19927;SDS011;10126;50.876;4.470;2023-06-10T04:02:50;0.10;;;0.10;;
19927;SDS011;10126;50.876;4.470;2023-06-10T04:04:51;0.20;;;0.13;;
19927;SDS011;10126;50.876;4.470;2023-06-10T04:06:52;0.10;;;0.10;;
19927;SDS011;10126;50.876;4.470;2023-06-10T04:08:55;0.10;;;0.10;;
19927;SDS011;10126;50.876;4.470;2023-06-10T04:10:59;0.10;;;0.10;;
19927;SDS011;10126;50.876;4.470;2023-06-10T04:13:00;0.10;;;0.10;;
19927;SDS011;10126;50.876;4.470;2023-06-10T04:15:04;0.10;;;0.10;;
19927;SDS011;10126;50.876;4.470;2023-06-10T04:17:05;0.10;;;0.10;;
19927;SDS011;10126;50.876;4.470;2023-06-10T04:19:06;0.10;;;0.10;;
19927;SDS011;10126;50.876;4.470;2023-06-10T04:21:07;0.10;;;0.10;;
19927;SDS011;10126;50.876;4.470;2023-06-10T04:23:08;0.10;;;0.10;;
19927;SDS011;10126;50.876;4.470;2023-06-10T04:25:09;0.10;;;0.10;;
19927;SDS011;10126;50.876;4.470;2023-06-10T04:27:10;0.10;;;0.10;;
19927;SDS011;10126;50.876;4.470;2023-06-10T04:29:11;0.10;;;0.10;;
19927;SDS011;10126;50.876;4.470;2023-06-10T04:31:11;0.10;;;0.10;;
19927;SDS011;10126;50.876;4.470;2023-06-10T04:33:12;0.17;;;0.17;;
19927;SDS011;10126;50.876;4.470;2023-06-10T04:35:13;0.10;;;0.10;;
19927;SDS011;10126;50.876;4.470;2023-06-10T04:37:18;0.10;;;0.10;;
19927;SDS011;10126;50.876;4.470;2023-06-10T04:39:21;0.10;;;0.10;;
19927;SDS011;10126;50.876;4.470;2023-06-10T04:41:22;0.00;;;0.00;;
19927;SDS011;10126;50.876;4.470;2023-06-10T04:43:23;0.10;;;0.10;;
19927;SDS011;10126;50.876;4.470;2023-06-10T04:45:24;0.00;;;0.00;;
19927;SDS011;10126;50.876;4.470;2023-06-10T04:47:25;0.10;;;0.10;;
19927;SDS011;10126;50.876;4.470;2023-06-10T04:49:35;0.03;;;0.03;;
19927;SDS011;10126;50.876;4.470;2023-06-10T04:51:36;0.00;;;0.00;;
19927;SDS011;10126;50.876;4.470;2023-06-10T04:53:37;0.00;;;0.00;;
19927;SDS011;10126;50.876;4.470;2023-06-10T04:55:38;0.00;;;0.00;;
19927;SDS011;10126;50.876;4.470;2023-06-10T04:57:39;0.10;;;0.10;;
19927;SDS011;10126;50.876;4.470;2023-06-10T04:59:39;0.00;;;0.00;;
19927;SDS011;10126;50.876;4.470;2023-06-10T05:01:40;0.00;;;0.00;;
19927;SDS011;10126;50.876;4.470;2023-06-10T05:03:41;0.10;;;0.10;;
19927;SDS011;10126;50.876;4.470;2023-06-10T05:05:41;0.00;;;0.00;;
19927;SDS011;10126;50.876;4.470;2023-06-10T05:07:42;0.00;;;0.00;;
19927;SDS011;10126;50.876;4.470;2023-06-10T05:09:43;0.00;;;0.00;;
19927;SDS011;10126;50.876;4.470;2023-06-10T05:11:50;0.00;;;0.00;;
19927;SDS011;10126;50.876;4.470;2023-06-10T05:13:51;0.00;;;0.00;;
19927;SDS011;10126;50.876;4.470;2023-06-10T05:15:51;0.00;;;0.00;;
19927;SDS011;10126;50.876;4.470;2023-06-10T05:17:52;0.00;;;0.00;;
19927;SDS011;10126;50.876;4.470;2023-06-10T05:19:52;0.00;;;0.00;;
19927;SDS011;10126;50.876;4.470;2023-06-10T05:21:53;0.00;;;0.00;;
19927;SDS011;10126;50.876;4.470;2023-06-10T05:23:54;0.00;;;0.00;;
19927;SDS011;10126;50.876;4.470;2023-06-10T05:25:54;0.10;;;0.10;;
19927;SDS011;10126;50.876;4.470;2023-06-10T05:27:58;0.00;;;0.00;;
19927;SDS011;10126;50.876;4.470;2023-06-10T05:30:27;0.00;;;0.00;;
19927;SDS011;10126;50.876;4.470;2023-06-10T05:32:28;0.00;;;0.00;;
19927;SDS011;10126;50.876;4.470;2023-06-10T05:34:29;0.00;;;0.00;;
19927;SDS011;10126;50.876;4.470;2023-06-10T05:36:30;0.00;;;0.00;;
19927;SDS011;10126;50.876;4.470;2023-06-10T05:38:32;0.00;;;0.00;;
19927;SDS011;10126;50.876;4.470;2023-06-10T05:40:32;0.00;;;0.00;;
19927;SDS011;10126;50.876;4.470;2023-06-10T05:42:33;0.00;;;0.00;;
19927;SDS011;10126;50.876;4.470;2023-06-10T05:44:34;0.00;;;0.00;;
19927;SDS011;10126;50.876;4.470;2023-06-10T05:46:35;0.00;;;0.00;;
19927;SDS011;10126;50.876;4.470;2023-06-10T05:48:35;0.00;;;0.00;;
19927;SDS011;10126;50.876;4.470;2023-06-10T05:50:36;0.00;;;0.00;;
19927;SDS011;10126;50.876;4.470;2023-06-10T05:52:38;0.00;;;0.00;;
19927;SDS011;10126;50.876;4.470;2023-06-10T05:54:42;0.00;;;0.00;;
19927;SDS011;10126;50.876;4.470;2023-06-10T05:56:43;0.00;;;0.00;;
19927;SDS011;10126;50.876;4.470;2023-06-10T05:58:43;0.00;;;0.00;;
19927;SDS011;10126;50.876;4.470;2023-06-10T06:00:44;0.00;;;0.00;;
19927;SDS011;10126;50.876;4.470;2023-06-10T06:02:44;0.00;;;0.00;;
19927;SDS011;10126;50.876;4.470;2023-06-10T06:04:45;0.00;;;0.00;;
19927;SDS011;10126;50.876;4.470;2023-06-10T06:06:46;0.00;;;0.00;;
19927;SDS011;10126;50.876;4.470;2023-06-10T06:08:46;0.00;;;0.00;;
19927;SDS011;10126;50.876;4.470;2023-06-10T06:10:47;0.00;;;0.00;;
19927;SDS011;10126;50.876;4.470;2023-06-10T06:12:48;0.00;;;0.00;;
19927;SDS011;10126;50.876;4.470;2023-06-10T06:14:48;0.00;;;0.00;;
19927;SDS011;10126;50.876;4.470;2023-06-10T06:16:49;0.00;;;0.00;;
19927;SDS011;10126;50.876;4.470;2023-06-10T06:18:50;0.00;;;0.00;;
19927;SDS011;10126;50.876;4.470;2023-06-10T06:20:50;0.00;;;0.00;;
19927;SDS011;10126;50.876;4.470;2023-06-10T06:22:51;0.00;;;0.00;;
19927;SDS011;10126;50.876;4.470;2023-06-10T06:24:52;0.00;;;0.00;;
19927;SDS011;10126;50.876;4.470;2023-06-10T06:26:52;0.00;;;0.00;;
19927;SDS011;10126;50.876;4.470;2023-06-10T06:28:53;0.00;;;0.00;;
19927;SDS011;10126;50.876;4.470;2023-06-10T06:30:55;0.00;;;0.00;;
19927;SDS011;10126;50.876;4.470;2023-06-10T06:32:56;0.00;;;0.00;;
19927;SDS011;10126;50.876;4.470;2023-06-10T06:34:57;0.00;;;0.00;;
19927;SDS011;10126;50.876;4.470;2023-06-10T06:36:58;0.00;;;0.00;;
19927;SDS011;10126;50.876;4.470;2023-06-10T06:38:59;0.00;;;0.00;;
19927;SDS011;10126;50.876;4.470;2023-06-10T06:40:59;0.00;;;0.00;;
19927;SDS011;10126;50.876;4.470;2023-06-10T06:43:05;0.00;;;0.00;;
19927;SDS011;10126;50.876;4.470;2023-06-10T06:45:06;0.00;;;0.00;;
19927;SDS011;10126;50.876;4.470;2023-06-10T06:47:07;0.00;;;0.00;;
19927;SDS011;10126;50.876;4.470;2023-06-10T06:49:08;0.00;;;0.00;;
19927;SDS011;10126;50.876;4.470;2023-06-10T06:51:08;0.00;;;0.00;;
19927;SDS011;10126;50.876;4.470;2023-06-10T06:53:09;0.00;;;0.00;;
19927;SDS011;10126;50.876;4.470;2023-06-10T06:55:10;0.00;;;0.00;;
19927;SDS011;10126;50.876;4.470;2023-06-10T06:57:10;0.00;;;0.00;;
19927;SDS011;10126;50.876;4.470;2023-06-10T06:59:11;0.00;;;0.00;;
19927;SDS011;10126;50.876;4.470;2023-06-10T07:01:13;0.00;;;0.00;;
19927;SDS011;10126;50.876;4.470;2023-06-10T07:03:14;0.00;;;0.00;;
19927;SDS011;10126;50.876;4.470;2023-06-10T07:05:15;0.00;;;0.00;;
19927;SDS011;10126;50.876;4.470;2023-06-10T07:07:16;0.00;;;0.00;;
19927;SDS011;10126;50.876;4.470;2023-06-10T07:09:17;0.00;;;0.00;;
19927;SDS011;10126;50.876;4.470;2023-06-10T07:11:17;0.00;;;0.00;;
19927;SDS011;10126;50.876;4.470;2023-06-10T07:13:18;0.00;;;0.00;;
19927;SDS011;10126;50.876;4.470;2023-06-10T07:15:18;0.00;;;0.00;;
19927;SDS011;10126;50.876;4.470;2023-06-10T07:17:19;0.00;;;0.00;;
19927;SDS011;10126;50.876;4.470;2023-06-10T07:19:20;0.00;;;0.00;;
19927;SDS011;10126;50.876;4.470;2023-06-10T07:21:21;0.00;;;0.00;;
19927;SDS011;10126;50.876;4.470;2023-06-10T07:23:23;0.00;;;0.00;;
19927;SDS011;10126;50.876;4.470;2023-06-10T07:25:23;0.00;;;0.00;;
19927;SDS011;10126;50.876;4.470;2023-06-10T07:27:24;0.00;;;0.00;;
19927;SDS011;10126;50.876;4.470;2023-06-10T07:29:25;0.00;;;0.00;;
19927;SDS011;10126;50.876;4.470;2023-06-10T07:31:25;0.00;;;0.00;;
19927;SDS011;10126;50.876;4.470;2023-06-10T07:33:26;0.00;;;0.00;;
19927;SDS011;10126;50.876;4.470;2023-06-10T07:35:27;0.00;;;0.00;;
19927;SDS011;10126;50.876;4.470;2023-06-10T07:37:27;0.00;;;0.00;;
19927;SDS011;10126;50.876;4.470;2023-06-10T07:39:28;0.00;;;0.00;;
19927;SDS011;10126;50.876;4.470;2023-06-10T07:41:28;0.00;;;0.00;;
19927;SDS011;10126;50.876;4.470;2023-06-10T07:43:29;0.00;;;0.00;;
19927;SDS011;10126;50.876;4.470;2023-06-10T07:45:30;0.00;;;0.00;;
19927;SDS011;10126;50.876;4.470;2023-06-10T07:47:30;0.00;;;0.00;;
19927;SDS011;10126;50.876;4.470;2023-06-10T07:49:33;0.00;;;0.00;;
19927;SDS011;10126;50.876;4.470;2023-06-10T07:51:34;0.00;;;0.00;;
19927;SDS011;10126;50.876;4.470;2023-06-10T07:53:35;0.00;;;0.00;;
19927;SDS011;10126;50.876;4.470;2023-06-10T07:55:35;0.00;;;0.00;;
19927;SDS011;10126;50.876;4.470;2023-06-10T07:57:36;0.00;;;0.00;;
19927;SDS011;10126;50.876;4.470;2023-06-10T07:59:38;0.00;;;0.00;;
19927;SDS011;10126;50.876;4.470;2023-06-10T08:01:39;0.00;;;0.00;;
19927;SDS011;10126;50.876;4.470;2023-06-10T08:03:40;0.00;;;0.00;;
19927;SDS011;10126;50.876;4.470;2023-06-10T08:05:40;0.00;;;0.00;;
19927;SDS011;10126;50.876;4.470;2023-06-10T08:07:41;0.00;;;0.00;;
19927;SDS011;10126;50.876;4.470;2023-06-10T08:09:42;0.00;;;0.00;;
19927;SDS011;10126;50.876;4.470;2023-06-10T08:11:42;0.00;;;0.00;;
19927;SDS011;10126;50.876;4.470;2023-06-10T08:13:43;0.00;;;0.00;;
19927;SDS011;10126;50.876;4.470;2023-06-10T08:15:44;0.00;;;0.00;;
19927;SDS011;10126;50.876;4.470;2023-06-10T08:17:45;0.00;;;0.00;;
19927;SDS011;10126;50.876;4.470;2023-06-10T08:19:45;0.00;;;0.00;;
19927;SDS011;10126;50.876;4.470;2023-06-10T08:21:46;0.00;;;0.00;;
19927;SDS011;10126;50.876;4.470;2023-06-10T08:23:46;0.00;;;0.00;;
19927;SDS011;10126;50.876;4.470;2023-06-10T08:25:47;0.00;;;0.00;;
19927;SDS011;10126;50.876;4.470;2023-06-10T08:27:48;0.00;;;0.00;;
19927;SDS011;10126;50.876;4.470;2023-06-10T08:29:48;0.00;;;0.00;;
19927;SDS011;10126;50.876;4.470;2023-06-10T08:31:49;0.00;;;0.00;;
19927;SDS011;10126;50.876;4.470;2023-06-10T08:33:50;0.00;;;0.00;;
19927;SDS011;10126;50.876;4.470;2023-06-10T08:35:50;0.00;;;0.00;;
19927;SDS011;10126;50.876;4.470;2023-06-10T08:37:54;0.00;;;0.00;;
19927;SDS011;10126;50.876;4.470;2023-06-10T08:39:54;0.00;;;0.00;;
19927;SDS011;10126;50.876;4.470;2023-06-10T08:42:00;0.00;;;0.00;;
19927;SDS011;10126;50.876;4.470;2023-06-10T08:44:24;0.00;;;0.00;;
19927;SDS011;10126;50.876;4.470;2023-06-10T08:46:31;0.00;;;0.00;;
19927;SDS011;10126;50.876;4.470;2023-06-10T08:48:32;0.00;;;0.00;;
19927;SDS011;10126;50.876;4.470;2023-06-10T08:50:36;0.00;;;0.00;;
19927;SDS011;10126;50.876;4.470;2023-06-10T08:52:38;0.00;;;0.00;;
19927;SDS011;10126;50.876;4.470;2023-06-10T08:54:43;0.00;;;0.00;;
19927;SDS011;10126;50.876;4.470;2023-06-10T08:57:00;0.00;;;0.00;;
19927;SDS011;10126;50.876;4.470;2023-06-10T08:59:03;0.00;;;0.00;;
19927;SDS011;10126;50.876;4.470;2023-06-10T09:01:05;0.00;;;0.00;;
19927;SDS011;10126;50.876;4.470;2023-06-10T09:03:05;0.00;;;0.00;;
19927;SDS011;10126;50.876;4.470;2023-06-10T09:05:09;0.00;;;0.00;;
19927;SDS011;10126;50.876;4.470;2023-06-10T09:07:10;0.00;;;0.00;;
19927;SDS011;10126;50.876;4.470;2023-06-10T09:09:11;0.00;;;0.00;;
19927;SDS011;10126;50.876;4.470;2023-06-10T09:11:13;0.00;;;0.00;;
19927;SDS011;10126;50.876;4.470;2023-06-10T09:13:14;0.00;;;0.00;;
19927;SDS011;10126;50.876;4.470;2023-06-10T09:15:18;0.00;;;0.00;;
19927;SDS011;10126;50.876;4.470;2023-06-10T09:17:19;0.00;;;0.00;;
19927;SDS011;10126;50.876;4.470;2023-06-10T09:19:20;0.00;;;0.00;;
19927;SDS011;10126;50.876;4.470;2023-06-10T09:21:24;0.00;;;0.00;;
19927;SDS011;10126;50.876;4.470;2023-06-10T09:23:25;0.00;;;0.00;;
19927;SDS011;10126;50.876;4.470;2023-06-10T09:25:36;0.00;;;0.00;;
19927;SDS011;10126;50.876;4.470;2023-06-10T09:27:44;0.00;;;0.00;;
19927;SDS011;10126;50.876;4.470;2023-06-10T09:29:53;0.00;;;0.00;;
19927;SDS011;10126;50.876;4.470;2023-06-10T09:31:55;0.00;;;0.00;;
19927;SDS011;10126;50.876;4.470;2023-06-10T09:34:17;0.00;;;0.00;;
19927;SDS011;10126;50.876;4.470;2023-06-10T09:36:23;0.00;;;0.00;;
19927;SDS011;10126;50.876;4.470;2023-06-10T09:38:23;0.00;;;0.00;;
19927;SDS011;10126;50.876;4.470;2023-06-10T09:40:30;0.00;;;0.00;;
19927;SDS011;10126;50.876;4.470;2023-06-10T09:42:34;0.00;;;0.00;;
19927;SDS011;10126;50.876;4.470;2023-06-10T09:44:36;0.00;;;0.00;;
19927;SDS011;10126;50.876;4.470;2023-06-10T09:46:39;0.00;;;0.00;;
19927;SDS011;10126;50.876;4.470;2023-06-10T09:48:43;0.00;;;0.00;;
19927;SDS011;10126;50.876;4.470;2023-06-10T09:50:46;0.00;;;0.00;;
19927;SDS011;10126;50.876;4.470;2023-06-10T09:52:48;0.00;;;0.00;;
19927;SDS011;10126;50.876;4.470;2023-06-10T09:54:59;0.00;;;0.00;;
19927;SDS011;10126;50.876;4.470;2023-06-10T09:57:01;0.00;;;0.00;;
19927;SDS011;10126;50.876;4.470;2023-06-10T09:59:08;0.00;;;0.00;;
19927;SDS011;10126;50.876;4.470;2023-06-10T10:01:09;0.00;;;0.00;;
19927;SDS011;10126;50.876;4.470;2023-06-10T10:03:11;0.00;;;0.00;;
19927;SDS011;10126;50.876;4.470;2023-06-10T10:05:23;0.00;;;0.00;;
19927;SDS011;10126;50.876;4.470;2023-06-10T10:07:24;0.00;;;0.00;;
19927;SDS011;10126;50.876;4.470;2023-06-10T10:09:24;0.00;;;0.00;;
19927;SDS011;10126;50.876;4.470;2023-06-10T10:11:25;0.00;;;0.00;;
19927;SDS011;10126;50.876;4.470;2023-06-10T10:13:27;0.00;;;0.00;;
19927;SDS011;10126;50.876;4.470;2023-06-10T10:15:29;0.00;;;0.00;;
19927;SDS011;10126;50.876;4.470;2023-06-10T10:17:32;0.00;;;0.00;;
19927;SDS011;10126;50.876;4.470;2023-06-10T10:19:47;0.00;;;0.00;;
19927;SDS011;10126;50.876;4.470;2023-06-10T10:21:54;0.00;;;0.00;;
19927;SDS011;10126;50.876;4.470;2023-06-10T10:24:02;0.00;;;0.00;;
19927;SDS011;10126;50.876;4.470;2023-06-10T10:26:05;0.00;;;0.00;;
19927;SDS011;10126;50.876;4.470;2023-06-10T10:28:12;0.00;;;0.00;;
19927;SDS011;10126;50.876;4.470;2023-06-10T10:30:15;0.00;;;0.00;;
19927;SDS011;10126;50.876;4.470;2023-06-10T10:32:26;0.00;;;0.00;;
19927;SDS011;10126;50.876;4.470;2023-06-10T10:34:37;0.00;;;0.00;;
19927;SDS011;10126;50.876;4.470;2023-06-10T10:36:45;0.00;;;0.00;;
19927;SDS011;10126;50.876;4.470;2023-06-10T10:38:47;0.00;;;0.00;;
19927;SDS011;10126;50.876;4.470;2023-06-10T10:40:49;0.00;;;0.00;;
19927;SDS011;10126;50.876;4.470;2023-06-10T10:42:51;0.00;;;0.00;;
19927;SDS011;10126;50.876;4.470;2023-06-10T10:44:53;0.00;;;0.00;;
19927;SDS011;10126;50.876;4.470;2023-06-10T10:46:54;0.00;;;0.00;;
19927;SDS011;10126;50.876;4.470;2023-06-10T10:48:55;0.00;;;0.00;;
19927;SDS011;10126;50.876;4.470;2023-06-10T10:50:58;0.00;;;0.00;;
19927;SDS011;10126;50.876;4.470;2023-06-10T10:52:59;0.00;;;0.00;;
19927;SDS011;10126;50.876;4.470;2023-06-10T10:55:02;0.10;;;0.10;;
19927;SDS011;10126;50.876;4.470;2023-06-10T10:59:17;0.00;;;0.00;;
19927;SDS011;10126;50.876;4.470;2023-06-10T11:01:19;0.00;;;0.00;;
19927;SDS011;10126;50.876;4.470;2023-06-10T11:03:20;0.00;;;0.00;;
19927;SDS011;10126;50.876;4.470;2023-06-10T11:05:31;0.00;;;0.00;;
19927;SDS011;10126;50.876;4.470;2023-06-10T11:07:39;0.00;;;0.00;;
19927;SDS011;10126;50.876;4.470;2023-06-10T11:09:56;0.00;;;0.00;;
19927;SDS011;10126;50.876;4.470;2023-06-10T11:12:02;0.00;;;0.00;;
19927;SDS011;10126;50.876;4.470;2023-06-10T11:14:06;0.00;;;0.00;;
19927;SDS011;10126;50.876;4.470;2023-06-10T11:16:09;0.10;;;0.08;;
19927;SDS011;10126;50.876;4.470;2023-06-10T11:22:58;0.00;;;0.00;;
19927;SDS011;10126;50.876;4.470;2023-06-10T11:25:00;0.00;;;0.00;;
19927;SDS011;10126;50.876;4.470;2023-06-10T11:29:24;0.00;;;0.00;;
19927;SDS011;10126;50.876;4.470;2023-06-10T11:31:28;0.00;;;0.00;;
19927;SDS011;10126;50.876;4.470;2023-06-10T11:33:32;0.00;;;0.00;;
19927;SDS011;10126;50.876;4.470;2023-06-10T11:35:33;0.00;;;0.00;;
19927;SDS011;10126;50.876;4.470;2023-06-10T11:37:34;0.00;;;0.00;;
19927;SDS011;10126;50.876;4.470;2023-06-10T11:39:35;0.00;;;0.00;;
19927;SDS011;10126;50.876;4.470;2023-06-10T11:41:36;0.00;;;0.00;;
19927;SDS011;10126;50.876;4.470;2023-06-10T11:43:40;0.00;;;0.00;;
19927;SDS011;10126;50.876;4.470;2023-06-10T11:45:46;0.00;;;0.00;;
19927;SDS011;10126;50.876;4.470;2023-06-10T11:47:56;0.00;;;0.00;;
19927;SDS011;10126;50.876;4.470;2023-06-10T11:49:58;0.00;;;0.00;;
19927;SDS011;10126;50.876;4.470;2023-06-10T11:51:59;0.05;;;0.05;;
19927;SDS011;10126;50.876;4.470;2023-06-10T11:53:59;0.00;;;0.00;;
19927;SDS011;10126;50.876;4.470;2023-06-10T11:56:01;0.00;;;0.00;;
19927;SDS011;10126;50.876;4.470;2023-06-10T11:58:01;0.00;;;0.00;;
19927;SDS011;10126;50.876;4.470;2023-06-10T12:00:05;0.00;;;0.00;;
19927;SDS011;10126;50.876;4.470;2023-06-10T12:02:14;0.00;;;0.00;;
19927;SDS011;10126;50.876;4.470;2023-06-10T12:04:16;0.00;;;0.00;;
19927;SDS011;10126;50.876;4.470;2023-06-10T12:06:18;0.00;;;0.00;;
19927;SDS011;10126;50.876;4.470;2023-06-10T12:08:18;0.00;;;0.00;;
19927;SDS011;10126;50.876;4.470;2023-06-10T12:10:19;0.00;;;0.00;;
19927;SDS011;10126;50.876;4.470;2023-06-10T12:12:20;0.00;;;0.00;;
19927;SDS011;10126;50.876;4.470;2023-06-10T12:14:54;0.00;;;0.00;;
19927;SDS011;10126;50.876;4.470;2023-06-10T12:17:00;0.00;;;0.00;;
19927;SDS011;10126;50.876;4.470;2023-06-10T12:19:03;0.00;;;0.00;;
19927;SDS011;10126;50.876;4.470;2023-06-10T12:21:23;0.00;;;0.00;;
19927;SDS011;10126;50.876;4.470;2023-06-10T12:23:25;0.00;;;0.00;;
19927;SDS011;10126;50.876;4.470;2023-06-10T12:25:26;0.00;;;0.00;;
19927;SDS011;10126;50.876;4.470;2023-06-10T12:27:29;0.00;;;0.00;;
19927;SDS011;10126;50.876;4.470;2023-06-10T12:29:30;0.00;;;0.00;;
19927;SDS011;10126;50.876;4.470;2023-06-10T12:31:31;0.00;;;0.00;;
19927;SDS011;10126;50.876;4.470;2023-06-10T12:33:31;0.00;;;0.00;;